< < Back
Terminal Aerodrome Forecast


Current Version              Previous Versions:   1  2  3  4  5  6  7  8  9  

Terminal Aerodrome Forecast

719
FTUS42 KCHS 201700
TAFCHS
TAF
KCHS 201737Z 2018/2118 03008KT P6SM SCT005 BKN035
      TEMPO 2018/2020 BKN005
     FM202000 02008KT 6SM BR SCT005 OVC010
     FM210600 02007KT 4SM BR BKN005 OVC010
     FM211300 02007KT P6SM SCT005 OVC015=



Latest METAR

214
SAUS80 KWBC 202000 RRA
MTRCHS
METAR KCHS 201956Z 05006KT 10SM BKN007 OVC055 12/11 A3015 RMK AO2 RAE21
SLP209 P0000 T01220111 $


USA.gov is the U.S. government's official web portal to all federal, state and local government web resources and services.